Pont Aven — FNPN — position and weather

sailwx.info

Track history (hours):
 
Tides and Currents Weather Stations Pressure Air Temp Water Temp Dewpoint Dewpoint Depression Visibility Wind Speed Wind Dir Waves Ship Positions

Pont Aven

Last reported at 2019-Feb-23 16:49 UTC. Time now 2019-Feb-23 17:29 UTC.
Position N 48°50' W 001°55'.

Length 185 m; beam 31 m.

Type: Passenger vessel. MMSI: 228183600.

Date/timePositionNaut miles runAvg speedWind from/ knotsBaromVisibWave heightAir tempDewpointWater temp
2019-Feb-23 16:49N 48°50' W 001°55'0 1.4
2019-Feb-23 16:30N 48°49' W 001°55'3 1.3
2019-Feb-23 14:15N 48°49' W 001°50'5 5.6
2019-Feb-23 13:24N 48°46' W 001°57'710.0
2019-Feb-23 12:43N 48°42' W 002°05'210.6
2019-Feb-23 12:30N 48°40' W 002°05'3 0.5
2019-Feb-23 07:03N 48°38' W 002°02'0 0.5
2019-Feb-23 07:01N 48°38' W 002°02'510.5
2019-Feb-23 06:30N 48°43' W 002°07'916.0
2019-Feb-23 05:58N 48°50' W 002°14'918.6
2019-Feb-23 05:28N 48°57' W 002°24'817.9
2019-Feb-23 05:00N 49°05' W 002°23'817.0
2019-Feb-23 04:30N 49°13' W 002°22'816.6
2019-Feb-23 04:01N 49°21' W 002°18'917.1
2019-Feb-23 03:30N 49°28' W 002°12'917.4
2019-Feb-23 03:00N 49°36' W 002°05'1020.0
2019-Feb-23 02:30N 49°45' W 001°60'917.6
2019-Feb-23 02:00N 49°52' W 001°51'915.7
2019-Feb-23 01:26N 49°59' W 001°42'614.8
2019-Feb-23 01:00N 50°05' W 001°37'714.0
2019-Feb-23 00:30N 50°11' W 001°31'713.3
2019-Feb-23 00:00N 50°16' W 001°25'612.7
2019-Feb-22 23:31N 50°21' W 001°19'612.2
2019-Feb-22 23:00N 50°25' W 001°12'611.8
2019-Feb-22 22:30N 50°30' W 001°06'611.5
2019-Feb-22 22:00N 50°34' W 001°01'612.8
2019-Feb-22 21:30N 50°40' W 000°58'713.3
2019-Feb-22 21:00N 50°45' W 001°05'3 6.5
2019-Feb-22 20:31N 50°49' W 001°06'0 0.2
2019-Feb-22 20:00N 50°49' W 001°06'0 0.0
2019-Feb-22 19:30N 50°49' W 001°06'0 0.0
2019-Feb-22 19:00N 50°49' W 001°06'0 0.0
2019-Feb-22 18:30N 50°49' W 001°06'0 0.0
2019-Feb-22 18:01N 50°49' W 001°06'0 0.0
2019-Feb-22 17:30N 50°49' W 001°06'0 0.0
2019-Feb-22 17:00N 50°49' W 001°06'0 0.0
2019-Feb-22 16:31N 50°49' W 001°06'0 0.0
2019-Feb-22 16:00N 50°49' W 001°06'0 0.0
2019-Feb-22 15:31N 50°49' W 001°06'0 0.0
2019-Feb-22 15:01N 50°49' W 001°06'0 0.0
2019-Feb-22 14:30N 50°49' W 001°06'0 0.0
2019-Feb-22 14:00N 50°49' W 001°06'0 0.0
2019-Feb-22 13:30N 50°49' W 001°06'0 0.0
2019-Feb-22 13:00N 50°49' W 001°06'0 0.0
2019-Feb-22 12:30N 50°49' W 001°06'0 0.0
2019-Feb-22 12:00N 50°49' W 001°06'0 0.0
2019-Feb-22 11:30N 50°49' W 001°06'0 0.0
2019-Feb-22 11:00N 50°49' W 001°06'0 0.0
2019-Feb-22 10:30N 50°49' W 001°06'0 0.0
2019-Feb-22 10:00N 50°49' W 001°06'0 0.0
2019-Feb-22 09:31N 50°49' W 001°06'0 0.0
2019-Feb-22 09:00N 50°49' W 001°06'0 0.0
2019-Feb-22 08:30N 50°49' W 001°06'0 0.0
2019-Feb-22 08:00N 50°49' W 001°06'1 2.0
2019-Feb-22 07:31N 50°48' W 001°07'611.2
2019-Feb-22 07:00N 50°43' W 001°02'713.7
2019-Feb-22 06:30N 50°37' W 001°01'816.5
2019-Feb-22 06:00N 50°29' W 001°07'712.8
2019-Feb-22 05:30N 50°24' W 001°13'5 9.5
2019-Feb-22 04:58N 50°20' W 001°18'4 9.3
2019-Feb-22 04:30N 50°16' W 001°22'4 8.0
2019-Feb-22 04:00N 50°13' W 001°26'4 7.8
2019-Feb-22 03:30N 50°11' W 001°31'4 8.2
2019-Feb-22 03:00N 50°08' W 001°34'4 8.5
2019-Feb-22 02:30N 50°04' W 001°38'5 9.1
2019-Feb-22 02:00N 50°00' W 001°42'5 9.9
2019-Feb-22 01:27N 49°56' W 001°47'510.5
2019-Feb-22 01:00N 49°52' W 001°51'713.0
2019-Feb-22 00:30N 49°47' W 001°58'713.8
2019-Feb-22 00:00N 49°41' W 002°03'815.2
2019-Feb-21 23:30N 49°35' W 002°09'816.5
2019-Feb-21 23:01N 49°27' W 002°14'816.7
2019-Feb-21 22:31N 49°20' W 002°20'816.6
2019-Feb-21 22:00N 49°12' W 002°23'816.3
2019-Feb-21 21:30N 49°03' W 002°23'915.5
2019-Feb-21 20:55N 48°54' W 002°21'714.7
2019-Feb-21 20:28N 48°49' W 002°15'714.2
2019-Feb-21 19:57N 48°43' W 002°08'511.8
2019-Feb-21 19:30N 48°39' W 002°03'1 0.1
2019-Feb-21 10:25N 48°38' W 002°02'0 0.0
2019-Feb-21 10:00N 48°38' W 002°02'0 0.0
2019-Feb-21 09:30N 48°38' W 002°02'0 0.0
2019-Feb-21 08:44N 48°38' W 002°02'0 0.0
2019-Feb-21 07:12N 48°38' W 002°02'0 0.3
2019-Feb-21 07:00N 48°38' W 002°02'812.5
2019-Feb-21 06:22N 48°45' W 002°08'721.0
2019-Feb-21 06:01N 48°51' W 002°16'918.7
2019-Feb-21 05:31N 48°58' W 002°24'1318.8
2019-Feb-21 04:48N 49°11' W 002°26'618.2
2019-Feb-21 04:30N 49°17' W 002°26'611.7
2019-Feb-21 04:01N 49°22' W 002°22'612.0
2019-Feb-21 03:30N 49°26' W 002°15'713.3
2019-Feb-21 03:00N 49°32' W 002°10'713.7
2019-Feb-21 02:30N 49°38' W 002°05'816.6
2019-Feb-21 02:00N 49°46' W 001°60'814.0
2019-Feb-21 01:27N 49°52' W 001°53'613.3
2019-Feb-21 00:58N 49°57' W 001°47'1416.1
2019-Feb-21 00:06N 50°08' W 001°34'2114.2
2019-Feb-20 22:37N 50°25' W 001°13'313.2
2019-Feb-20 22:25N 50°27' W 001°11'612.7
2019-Feb-20 21:59N 50°31' W 001°06'612.3
2019-Feb-20 21:30N 50°36' W 001°01'612.9
2019-Feb-20 21:01N 50°43' W 000°59'713.4
2019-Feb-20 20:30N 50°47' W 001°06'2 3.2
2019-Feb-20 20:00N 50°49' W 001°06'0 0.0
2019-Feb-20 19:30N 50°49' W 001°06'0 0.0
2019-Feb-20 19:00N 50°49' W 001°06'0 0.0
2019-Feb-20 18:30N 50°49' W 001°06'0 0.0
2019-Feb-20 18:00N 50°49' W 001°06'0 0.0
2019-Feb-20 17:30N 50°49' W 001°06'0 0.0
2019-Feb-20 17:00N 50°49' W 001°06'0 0.0
2019-Feb-20 16:30N 50°49' W 001°06'0 0.0
2019-Feb-20 16:00N 50°49' W 001°06'0 0.0
2019-Feb-20 15:30N 50°49' W 001°06'0 0.0
2019-Feb-20 15:00N 50°49' W 001°06'0 0.0
2019-Feb-20 14:30N 50°49' W 001°06'0 0.0
2019-Feb-20 14:00N 50°49' W 001°06'0 0.0
2019-Feb-20 13:30N 50°49' W 001°06'0 0.0
2019-Feb-20 13:00N 50°49' W 001°06'0 0.0
2019-Feb-20 12:30N 50°49' W 001°06'0 0.0
2019-Feb-20 12:00N 50°49' W 001°06'0 0.0
2019-Feb-20 11:30N 50°49' W 001°06'0 0.0
2019-Feb-20 11:00N 50°49' W 001°06'0 0.0
2019-Feb-20 10:30N 50°49' W 001°06'0 0.0
2019-Feb-20 10:00N 50°49' W 001°06'0 0.0
2019-Feb-20 09:30N 50°49' W 001°06'0 0.0
2019-Feb-20 09:00N 50°49' W 001°06'0 0.0
2019-Feb-20 08:30N 50°49' W 001°06'0 0.0
2019-Feb-20 08:00N 50°49' W 001°06'0 0.7
2019-Feb-20 07:31N 50°49' W 001°06'5 9.7
2019-Feb-20 07:00N 50°44' W 001°04'713.9
2019-Feb-20 06:30N 50°37' W 001°01'1019.3
2019-Feb-20 06:00N 50°29' W 001°07'918.2
2019-Feb-20 05:29N 50°21' W 001°16'917.8
2019-Feb-20 04:58N 50°14' W 001°26'816.8
2019-Feb-20 04:30N 50°08' W 001°34'816.1
2019-Feb-20 03:59N 50°02' W 001°42'1615.1
2019-Feb-20 02:53N 49°49' W 001°58'713.8
2019-Feb-20 02:24N 49°44' W 002°04'511.9
2019-Feb-20 02:00N 49°39' W 002°06'5 9.8
2019-Feb-20 01:30N 49°34' W 002°08'4 8.6
2019-Feb-20 01:00N 49°30' W 002°11'5 9.4
2019-Feb-20 00:29N 49°26' W 002°15'4 9.1
2019-Feb-20 00:00N 49°23' W 002°20'5 9.4
2019-Feb-19 23:30N 49°21' W 002°26'4 8.4
2019-Feb-19 23:00N 49°18' W 002°31'712.3
2019-Feb-19 22:28N 49°12' W 002°29'6 0.4
2019-Feb-19 04:14N 49°18' W 002°29'313.6
2019-Feb-19 04:01N 49°20' W 002°26'510.1
2019-Feb-19 03:30N 49°23' W 002°20'611.1
2019-Feb-19 03:00N 49°27' W 002°14'612.1
2019-Feb-19 02:30N 49°33' W 002°10'712.6
2019-Feb-19 01:59N 49°39' W 002°05'915.0
2019-Feb-19 01:24N 49°46' W 001°59'1213.7
2019-Feb-19 00:30N 49°56' W 001°47'3515.6
2019-Feb-18 22:15N 50°26' W 001°18'415.7
2019-Feb-18 22:00N 50°30' W 001°15'715.3
2019-Feb-18 21:31N 50°36' W 001°09'714.1
2019-Feb-18 21:00N 50°42' W 001°03'612.6
2019-Feb-18 20:30N 50°47' W 001°07'1 3.0
2019-Feb-18 20:01N 50°49' W 001°06'0 0.0
2019-Feb-18 19:31N 50°49' W 001°06'0 0.0
2019-Feb-18 19:01N 50°49' W 001°06'0 0.0
2019-Feb-18 18:30N 50°49' W 001°06'1 1.7
2019-Feb-18 18:00N 50°48' W 001°07'612.0
2019-Feb-18 17:30N 50°43' W 001°02'815.0
2019-Feb-18 17:00N 50°36' W 001°01'815.8
2019-Feb-18 16:30N 50°30' W 001°08'815.7
2019-Feb-18 16:00N 50°23' W 001°16'3616.3
2019-Feb-18 13:48N 49°55' W 001°49'617.1
2019-Feb-18 13:27N 49°50' W 001°54'816.3
2019-Feb-18 12:59N 49°43' W 002°01'715.3
2019-Feb-18 12:30N 49°37' W 002°07'917.1
2019-Feb-18 12:00N 49°29' W 002°12'917.2
2019-Feb-18 11:30N 49°22' W 002°21'816.0
2019-Feb-18 11:00N 49°15' W 002°26'1120.0
2019-Feb-18 10:27N 49°04' W 002°23'2719.5
2019-Feb-18 09:03N 48°40' W 002°04'36 7.2
2019-Feb-18 04:03N 49°14' W 002°23'116.1
2019-Feb-18 04:00N 49°15' W 002°22'815.5
2019-Feb-18 03:30N 49°22' W 002°18'816.2
2019-Feb-18 03:00N 49°29' W 002°12'815.9
2019-Feb-18 02:30N 49°36' W 002°07'916.3
2019-Feb-18 01:57N 49°44' W 002°01'816.4
2019-Feb-18 01:27N 49°51' W 001°55'816.5
2019-Feb-18 00:59N 49°58' W 001°48'816.1
2019-Feb-18 00:30N 50°05' W 001°43'815.7
2019-Feb-18 00:00N 50°12' W 001°39'2015.1
2019-Feb-17 22:39N 50°28' W 001°19'211.8
2019-Feb-17 22:29N 50°30' W 001°17'611.9
2019-Feb-17 22:00N 50°34' W 001°11'611.9
2019-Feb-17 21:30N 50°39' W 001°06'510.4
2019-Feb-17 21:00N 50°44' W 001°03'510.3
2019-Feb-17 20:31N 50°48' W 001°07'1 1.7
2019-Feb-17 20:01N 50°49' W 001°06'0 0.0
2019-Feb-17 19:30N 50°49' W 001°06'0 0.0
2019-Feb-17 19:00N 50°49' W 001°06'0 0.0
2019-Feb-17 18:30N 50°49' W 001°06'0 0.0
2019-Feb-17 18:01N 50°49' W 001°06'0 0.0
2019-Feb-17 17:31N 50°49' W 001°06'0 0.0
2019-Feb-17 17:00N 50°49' W 001°06'0 0.0
2019-Feb-17 16:30N 50°49' W 001°06'0 0.0
2019-Feb-17 16:00N 50°49' W 001°06'0 0.0
2019-Feb-17 15:31N 50°49' W 001°06'0 0.0
2019-Feb-17 15:01N 50°49' W 001°06'0 0.0
2019-Feb-17 14:31N 50°49' W 001°06'0 0.0
2019-Feb-17 14:00N 50°49' W 001°06'0 0.0
2019-Feb-17 13:30N 50°49' W 001°06'0 0.0
2019-Feb-17 13:00N 50°49' W 001°06'0 0.0
2019-Feb-17 12:30N 50°49' W 001°06'0 0.0
2019-Feb-17 12:00N 50°49' W 001°06'0 0.0
2019-Feb-17 11:31N 50°49' W 001°06'0 0.0
2019-Feb-17 11:00N 50°49' W 001°06'0 0.0
2019-Feb-17 10:30N 50°49' W 001°06'0 0.0
2019-Feb-17 10:01N 50°49' W 001°06'0 0.0
2019-Feb-17 09:30N 50°49' W 001°06'0 0.0
2019-Feb-17 09:01N 50°49' W 001°06'0 0.0
2019-Feb-17 08:31N 50°49' W 001°06'0 0.0
2019-Feb-17 08:00N 50°49' W 001°06'0 0.3
2019-Feb-17 07:30N 50°49' W 001°06'4 8.1
2019-Feb-17 07:01N 50°45' W 001°05'714.2
2019-Feb-17 06:31N 50°38' W 001°07'612.0
2019-Feb-17 06:01N 50°32' W 001°10'611.2
2019-Feb-17 05:30N 50°27' W 001°15'511.1
2019-Feb-17 05:00N 50°22' W 001°19'611.4
2019-Feb-17 04:30N 50°18' W 001°24'713.9
2019-Feb-17 04:01N 50°12' W 001°31'816.0
2019-Feb-17 03:31N 50°05' W 001°38'917.7
2019-Feb-17 03:01N 49°58' W 001°46'815.1
2019-Feb-17 02:30N 49°52' W 001°53'611.9
2019-Feb-17 02:00N 49°47' W 001°58'511.3
2019-Feb-17 01:30N 49°42' W 002°02'510.6
2019-Feb-17 01:00N 49°37' W 002°05'510.5
2019-Feb-17 00:30N 49°33' W 002°08'510.8
2019-Feb-17 00:00N 49°28' W 002°13'510.3
2019-Feb-16 23:30N 49°24' W 002°17'510.0
2019-Feb-16 23:00N 49°19' W 002°21'510.4
2019-Feb-16 22:31N 49°14' W 002°23'611.3
2019-Feb-16 22:00N 49°09' W 002°24'712.2
2019-Feb-16 21:23N 49°01' W 002°23'612.6
2019-Feb-16 20:54N 48°55' W 002°22'21 5.1
2019-Feb-16 16:43N 48°38' W 002°02'3 8.1
2019-Feb-16 16:22N 48°40' W 002°05'610.4
2019-Feb-16 15:46N 48°46' W 002°08'1 1.3
2019-Feb-16 15:03N 48°45' W 002°09'2 1.5
2019-Feb-16 13:52N 48°45' W 002°12'3 2.8
2019-Feb-16 12:57N 48°44' W 002°15'3 6.2
2019-Feb-16 12:28N 48°44' W 002°11'5 9.9
2019-Feb-16 11:58N 48°41' W 002°05'35 4.4
2019-Feb-16 04:00N 49°14' W 002°23'715.0
2019-Feb-16 03:30N 49°20' W 002°19'815.2
2019-Feb-16 03:00N 49°27' W 002°13'715.1
2019-Feb-16 02:31N 49°34' W 002°08'815.3
2019-Feb-16 02:00N 49°41' W 002°03'814.8
2019-Feb-16 01:28N 49°48' W 001°59'914.9
2019-Feb-16 00:51N 49°55' W 001°50'615.3
2019-Feb-16 00:28N 50°00' W 001°44'915.7
2019-Feb-15 23:54N 50°07' W 001°36'915.8
2019-Feb-15 23:21N 50°14' W 001°28'515.0
2019-Feb-15 23:00N 50°19' W 001°26'1115.8
2019-Feb-15 22:17N 50°29' W 001°17'416.2
2019-Feb-15 22:00N 50°32' W 001°13'816.1
2019-Feb-15 21:31N 50°39' W 001°05'612.5
2019-Feb-15 21:00N 50°45' W 001°05'4 6.7
2019-Feb-15 20:29N 50°49' W 001°06'0 0.3
2019-Feb-15 19:59N 50°49' W 001°06'0 0.0
2019-Feb-15 19:29N 50°49' W 001°06'0 0.0
2019-Feb-15 18:59N 50°49' W 001°06'0 0.0
2019-Feb-15 18:29N 50°49' W 001°06'0 0.0
2019-Feb-15 18:00N 50°49' W 001°06'0 0.0
2019-Feb-15 17:30N 50°49' W 001°06'0 0.0
2019-Feb-15 17:00N 50°49' W 001°06'0 0.0
2019-Feb-15 16:30N 50°49' W 001°06'0 0.0
2019-Feb-15 16:00N 50°49' W 001°06'0 0.0
2019-Feb-15 15:30N 50°49' W 001°06'0 0.0
2019-Feb-15 15:00N 50°49' W 001°06'0 0.0
2019-Feb-15 14:30N 50°49' W 001°06'0 0.0
2019-Feb-15 14:00N 50°49' W 001°06'0 0.0
2019-Feb-15 13:30N 50°49' W 001°06'0 0.0
2019-Feb-15 13:00N 50°49' W 001°06'0 0.0
2019-Feb-15 12:30N 50°49' W 001°06'0 0.0
2019-Feb-15 12:00N 50°49' W 001°06'0 0.0
2019-Feb-15 11:30N 50°49' W 001°06'0 0.0
2019-Feb-15 11:00N 50°49' W 001°06'0 0.0
2019-Feb-15 10:30N 50°49' W 001°06'0 0.0
2019-Feb-15 10:00N 50°49' W 001°06'0 0.1
2019-Feb-15 09:30N 50°49' W 001°06'3 6.2
2019-Feb-15 09:00N 50°46' W 001°05'4 7.5
2019-Feb-15 08:30N 50°42' W 001°03'1 1.1
2019-Feb-15 08:01N 50°43' W 001°03'612.6
2019-Feb-15 07:31N 50°37' W 001°07'917.1
2019-Feb-15 07:01N 50°30' W 001°16'917.5
2019-Feb-15 06:31N 50°23' W 001°24'917.3
2019-Feb-15 06:01N 50°16' W 001°31'1016.5
2019-Feb-15 05:24N 50°07' W 001°38'816.3
2019-Feb-15 04:55N 50°00' W 001°45'1015.9
2019-Feb-15 04:16N 49°52' W 001°54'416.2
2019-Feb-15 04:00N 49°48' W 001°57'917.1
2019-Feb-15 03:27N 49°40' W 002°04'613.8
2019-Feb-15 03:00N 49°34' W 002°08'713.7
2019-Feb-15 02:28N 49°27' W 002°12'613.3
2019-Feb-15 02:00N 49°22' W 002°16'612.9
2019-Feb-15 01:30N 49°18' W 002°23'612.2
2019-Feb-15 00:59N 49°12' W 002°27'612.3
2019-Feb-15 00:31N 49°06' W 002°29'712.1
2019-Feb-14 23:57N 48°60' W 002°33'510.5
2019-Feb-14 23:29N 48°55' W 002°33'810.9
2019-Feb-14 22:45N 48°51' W 002°22'1511.0
2019-Feb-14 21:22N 48°41' W 002°05'3 0.3
2019-Feb-14 08:13N 48°38' W 002°02'1 4.5
2019-Feb-14 07:58N 48°39' W 002°03'1316.6
2019-Feb-14 07:13N 48°49' W 002°16'616.1
2019-Feb-14 06:49N 48°54' W 002°21'1116.8
2019-Feb-14 06:10N 49°05' W 002°23'415.8
2019-Feb-14 05:53N 49°09' W 002°23'615.5
2019-Feb-14 05:29N 49°15' W 002°22'816.0
2019-Feb-14 05:01N 49°22' W 002°18'815.7
2019-Feb-14 04:30N 49°29' W 002°12'815.8
2019-Feb-14 04:00N 49°36' W 002°07'1312.3
2019-Feb-14 02:58N 49°47' W 001°57'6 9.9
2019-Feb-14 02:25N 49°52' W 001°52'910.0
2019-Feb-14 01:32N 49°59' W 001°43'0 9.8
2019-Feb-14 01:29N 49°59' W 001°43'1010.3
2019-Feb-14 00:31N 50°08' W 001°35'310.7
2019-Feb-14 00:15N 50°10' W 001°32'510.8
2019-Feb-13 23:47N 50°14' W 001°28'311.1
2019-Feb-13 23:30N 50°17' W 001°25'611.5
2019-Feb-13 23:00N 50°21' W 001°20'611.9
2019-Feb-13 22:30N 50°26' W 001°13'612.2
2019-Feb-13 22:00N 50°31' W 001°07'612.2
2019-Feb-13 21:30N 50°35' W 001°02'713.3
2019-Feb-13 21:00N 50°42' W 000°59'713.3
2019-Feb-13 20:30N 50°47' W 001°06'2 4.2
2019-Feb-13 20:00N 50°49' W 001°06'0 0.0
2019-Feb-13 19:30N 50°49' W 001°06'0 0.0
2019-Feb-13 19:00N 50°49' W 001°06'0 0.0
2019-Feb-13 18:30N 50°49' W 001°06'0 0.0
2019-Feb-13 18:00N 50°49' W 001°06'0 0.0
2019-Feb-13 17:30N 50°49' W 001°06'0 0.0
2019-Feb-13 17:00N 50°49' W 001°06'  
Track history (hours):
 
Tides and Currents Weather Stations Pressure Air Temp Water Temp Dewpoint Dewpoint Depression Visibility Wind Speed Wind Dir Waves Ship Positions

Pont Aven

Last reported at 2019-Feb-23 16:49 UTC. Time now 2019-Feb-23 17:29 UTC.
Position N 48°50' W 001°55'.

Length 185 m; beam 31 m.

Type: Passenger vessel. MMSI: 228183600.

Date/timePositionNaut miles runAvg speedWind from/ knotsBaromVisibWave heightAir tempDewpointWater temp
2019-Feb-23 16:49N 48°50' W 001°55'0 1.4
2019-Feb-23 16:30N 48°49' W 001°55'3 1.3
2019-Feb-23 14:15N 48°49' W 001°50'5 5.6
2019-Feb-23 13:24N 48°46' W 001°57'710.0
2019-Feb-23 12:43N 48°42' W 002°05'210.6
2019-Feb-23 12:30N 48°40' W 002°05'3 0.5
2019-Feb-23 07:03N 48°38' W 002°02'0 0.5
2019-Feb-23 07:01N 48°38' W 002°02'510.5
2019-Feb-23 06:30N 48°43' W 002°07'916.0
2019-Feb-23 05:58N 48°50' W 002°14'918.6
2019-Feb-23 05:28N 48°57' W 002°24'817.9
2019-Feb-23 05:00N 49°05' W 002°23'817.0
2019-Feb-23 04:30N 49°13' W 002°22'816.6
2019-Feb-23 04:01N 49°21' W 002°18'917.1
2019-Feb-23 03:30N 49°28' W 002°12'917.4
2019-Feb-23 03:00N 49°36' W 002°05'1020.0
2019-Feb-23 02:30N 49°45' W 001°60'917.6
2019-Feb-23 02:00N 49°52' W 001°51'915.7
2019-Feb-23 01:26N 49°59' W 001°42'614.8
2019-Feb-23 01:00N 50°05' W 001°37'714.0
2019-Feb-23 00:30N 50°11' W 001°31'713.3
2019-Feb-23 00:00N 50°16' W 001°25'612.7
2019-Feb-22 23:31N 50°21' W 001°19'612.2
2019-Feb-22 23:00N 50°25' W 001°12'611.8
2019-Feb-22 22:30N 50°30' W 001°06'611.5
2019-Feb-22 22:00N 50°34' W 001°01'612.8
2019-Feb-22 21:30N 50°40' W 000°58'713.3
2019-Feb-22 21:00N 50°45' W 001°05'3 6.5
2019-Feb-22 20:31N 50°49' W 001°06'0 0.2
2019-Feb-22 20:00N 50°49' W 001°06'0 0.0
2019-Feb-22 19:30N 50°49' W 001°06'0 0.0
2019-Feb-22 19:00N 50°49' W 001°06'0 0.0
2019-Feb-22 18:30N 50°49' W 001°06'0 0.0
2019-Feb-22 18:01N 50°49' W 001°06'0 0.0
2019-Feb-22 17:30N 50°49' W 001°06'0 0.0
2019-Feb-22 17:00N 50°49' W 001°06'0 0.0
2019-Feb-22 16:31N 50°49' W 001°06'0 0.0
2019-Feb-22 16:00N 50°49' W 001°06'0 0.0
2019-Feb-22 15:31N 50°49' W 001°06'0 0.0
2019-Feb-22 15:01N 50°49' W 001°06'0 0.0
2019-Feb-22 14:30N 50°49' W 001°06'0 0.0
2019-Feb-22 14:00N 50°49' W 001°06'0 0.0
2019-Feb-22 13:30N 50°49' W 001°06'0 0.0
2019-Feb-22 13:00N 50°49' W 001°06'0 0.0
2019-Feb-22 12:30N 50°49' W 001°06'0 0.0
2019-Feb-22 12:00N 50°49' W 001°06'0 0.0
2019-Feb-22 11:30N 50°49' W 001°06'0 0.0
2019-Feb-22 11:00N 50°49' W 001°06'0 0.0
2019-Feb-22 10:30N 50°49' W 001°06'0 0.0
2019-Feb-22 10:00N 50°49' W 001°06'0 0.0
2019-Feb-22 09:31N 50°49' W 001°06'0 0.0
2019-Feb-22 09:00N 50°49' W 001°06'0 0.0
2019-Feb-22 08:30N 50°49' W 001°06'0 0.0
2019-Feb-22 08:00N 50°49' W 001°06'1 2.0
2019-Feb-22 07:31N 50°48' W 001°07'611.2
2019-Feb-22 07:00N 50°43' W 001°02'713.7
2019-Feb-22 06:30N 50°37' W 001°01'816.5
2019-Feb-22 06:00N 50°29' W 001°07'712.8
2019-Feb-22 05:30N 50°24' W 001°13'5 9.5
2019-Feb-22 04:58N 50°20' W 001°18'4 9.3
2019-Feb-22 04:30N 50°16' W 001°22'4 8.0
2019-Feb-22 04:00N 50°13' W 001°26'4 7.8
2019-Feb-22 03:30N 50°11' W 001°31'4 8.2
2019-Feb-22 03:00N 50°08' W 001°34'4 8.5
2019-Feb-22 02:30N 50°04' W 001°38'5 9.1
2019-Feb-22 02:00N 50°00' W 001°42'5 9.9
2019-Feb-22 01:27N 49°56' W 001°47'510.5
2019-Feb-22 01:00N 49°52' W 001°51'713.0
2019-Feb-22 00:30N 49°47' W 001°58'713.8
2019-Feb-22 00:00N 49°41' W 002°03'815.2
2019-Feb-21 23:30N 49°35' W 002°09'816.5
2019-Feb-21 23:01N 49°27' W 002°14'816.7
2019-Feb-21 22:31N 49°20' W 002°20'816.6
2019-Feb-21 22:00N 49°12' W 002°23'816.3
2019-Feb-21 21:30N 49°03' W 002°23'915.5
2019-Feb-21 20:55N 48°54' W 002°21'714.7
2019-Feb-21 20:28N 48°49' W 002°15'714.2
2019-Feb-21 19:57N 48°43' W 002°08'511.8
2019-Feb-21 19:30N 48°39' W 002°03'1 0.1
2019-Feb-21 10:25N 48°38' W 002°02'0 0.0
2019-Feb-21 10:00N 48°38' W 002°02'0 0.0
2019-Feb-21 09:30N 48°38' W 002°02'0 0.0
2019-Feb-21 08:44N 48°38' W 002°02'0 0.0
2019-Feb-21 07:12N 48°38' W 002°02'0 0.3
2019-Feb-21 07:00N 48°38' W 002°02'812.5
2019-Feb-21 06:22N 48°45' W 002°08'721.0
2019-Feb-21 06:01N 48°51' W 002°16'918.7
2019-Feb-21 05:31N 48°58' W 002°24'1318.8
2019-Feb-21 04:48N 49°11' W 002°26'618.2
2019-Feb-21 04:30N 49°17' W 002°26'611.7
2019-Feb-21 04:01N 49°22' W 002°22'612.0
2019-Feb-21 03:30N 49°26' W 002°15'713.3
2019-Feb-21 03:00N 49°32' W 002°10'713.7
2019-Feb-21 02:30N 49°38' W 002°05'816.6
2019-Feb-21 02:00N 49°46' W 001°60'814.0
2019-Feb-21 01:27N 49°52' W 001°53'613.3
2019-Feb-21 00:58N 49°57' W 001°47'1416.1
2019-Feb-21 00:06N 50°08' W 001°34'2114.2
2019-Feb-20 22:37N 50°25' W 001°13'313.2
2019-Feb-20 22:25N 50°27' W 001°11'612.7
2019-Feb-20 21:59N 50°31' W 001°06'612.3
2019-Feb-20 21:30N 50°36' W 001°01'612.9
2019-Feb-20 21:01N 50°43' W 000°59'713.4
2019-Feb-20 20:30N 50°47' W 001°06'2 3.2
2019-Feb-20 20:00N 50°49' W 001°06'0 0.0
2019-Feb-20 19:30N 50°49' W 001°06'0 0.0
2019-Feb-20 19:00N 50°49' W 001°06'0 0.0
2019-Feb-20 18:30N 50°49' W 001°06'0 0.0
2019-Feb-20 18:00N 50°49' W 001°06'0 0.0
2019-Feb-20 17:30N 50°49' W 001°06'0 0.0
2019-Feb-20 17:00N 50°49' W 001°06'0 0.0
2019-Feb-20 16:30N 50°49' W 001°06'0 0.0
2019-Feb-20 16:00N 50°49' W 001°06'0 0.0
2019-Feb-20 15:30N 50°49' W 001°06'0 0.0
2019-Feb-20 15:00N 50°49' W 001°06'0 0.0
2019-Feb-20 14:30N 50°49' W 001°06'0 0.0
2019-Feb-20 14:00N 50°49' W 001°06'0 0.0
2019-Feb-20 13:30N 50°49' W 001°06'0 0.0
2019-Feb-20 13:00N 50°49' W 001°06'0 0.0
2019-Feb-20 12:30N 50°49' W 001°06'0 0.0
2019-Feb-20 12:00N 50°49' W 001°06'0 0.0
2019-Feb-20 11:30N 50°49' W 001°06'0 0.0
2019-Feb-20 11:00N 50°49' W 001°06'0 0.0
2019-Feb-20 10:30N 50°49' W 001°06'0 0.0
2019-Feb-20 10:00N 50°49' W 001°06'0 0.0
2019-Feb-20 09:30N 50°49' W 001°06'0 0.0
2019-Feb-20 09:00N 50°49' W 001°06'0 0.0
2019-Feb-20 08:30N 50°49' W 001°06'0 0.0
2019-Feb-20 08:00N 50°49' W 001°06'0 0.7
2019-Feb-20 07:31N 50°49' W 001°06'5 9.7
2019-Feb-20 07:00N 50°44' W 001°04'713.9
2019-Feb-20 06:30N 50°37' W 001°01'1019.3
2019-Feb-20 06:00N 50°29' W 001°07'918.2
2019-Feb-20 05:29N 50°21' W 001°16'917.8
2019-Feb-20 04:58N 50°14' W 001°26'816.8
2019-Feb-20 04:30N 50°08' W 001°34'816.1
2019-Feb-20 03:59N 50°02' W 001°42'1615.1
2019-Feb-20 02:53N 49°49' W 001°58'713.8
2019-Feb-20 02:24N 49°44' W 002°04'511.9
2019-Feb-20 02:00N 49°39' W 002°06'5 9.8
2019-Feb-20 01:30N 49°34' W 002°08'4 8.6
2019-Feb-20 01:00N 49°30' W 002°11'5 9.4
2019-Feb-20 00:29N 49°26' W 002°15'4 9.1
2019-Feb-20 00:00N 49°23' W 002°20'5 9.4
2019-Feb-19 23:30N 49°21' W 002°26'4 8.4
2019-Feb-19 23:00N 49°18' W 002°31'712.3
2019-Feb-19 22:28N 49°12' W 002°29'6 0.4
2019-Feb-19 04:14N 49°18' W 002°29'313.6
2019-Feb-19 04:01N 49°20' W 002°26'510.1
2019-Feb-19 03:30N 49°23' W 002°20'611.1
2019-Feb-19 03:00N 49°27' W 002°14'612.1
2019-Feb-19 02:30N 49°33' W 002°10'712.6
2019-Feb-19 01:59N 49°39' W 002°05'915.0
2019-Feb-19 01:24N 49°46' W 001°59'1213.7
2019-Feb-19 00:30N 49°56' W 001°47'3515.6
2019-Feb-18 22:15N 50°26' W 001°18'415.7
2019-Feb-18 22:00N 50°30' W 001°15'715.3
2019-Feb-18 21:31N 50°36' W 001°09'714.1
2019-Feb-18 21:00N 50°42' W 001°03'612.6
2019-Feb-18 20:30N 50°47' W 001°07'1 3.0
2019-Feb-18 20:01N 50°49' W 001°06'0 0.0
2019-Feb-18 19:31N 50°49' W 001°06'0 0.0
2019-Feb-18 19:01N 50°49' W 001°06'0 0.0
2019-Feb-18 18:30N 50°49' W 001°06'1 1.7
2019-Feb-18 18:00N 50°48' W 001°07'612.0
2019-Feb-18 17:30N 50°43' W 001°02'815.0
2019-Feb-18 17:00N 50°36' W 001°01'815.8
2019-Feb-18 16:30N 50°30' W 001°08'815.7
2019-Feb-18 16:00N 50°23' W 001°16'3616.3
2019-Feb-18 13:48N 49°55' W 001°49'617.1
2019-Feb-18 13:27N 49°50' W 001°54'816.3
2019-Feb-18 12:59N 49°43' W 002°01'715.3
2019-Feb-18 12:30N 49°37' W 002°07'917.1
2019-Feb-18 12:00N 49°29' W 002°12'917.2
2019-Feb-18 11:30N 49°22' W 002°21'816.0
2019-Feb-18 11:00N 49°15' W 002°26'1120.0
2019-Feb-18 10:27N 49°04' W 002°23'2719.5
2019-Feb-18 09:03N 48°40' W 002°04'36 7.2
2019-Feb-18 04:03N 49°14' W 002°23'116.1
2019-Feb-18 04:00N 49°15' W 002°22'815.5
2019-Feb-18 03:30N 49°22' W 002°18'816.2
2019-Feb-18 03:00N 49°29' W 002°12'815.9
2019-Feb-18 02:30N 49°36' W 002°07'916.3
2019-Feb-18 01:57N 49°44' W 002°01'816.4
2019-Feb-18 01:27N 49°51' W 001°55'816.5
2019-Feb-18 00:59N 49°58' W 001°48'816.1
2019-Feb-18 00:30N 50°05' W 001°43'815.7
2019-Feb-18 00:00N 50°12' W 001°39'2015.1
2019-Feb-17 22:39N 50°28' W 001°19'211.8
2019-Feb-17 22:29N 50°30' W 001°17'611.9
2019-Feb-17 22:00N 50°34' W 001°11'611.9
2019-Feb-17 21:30N 50°39' W 001°06'510.4
2019-Feb-17 21:00N 50°44' W 001°03'510.3
2019-Feb-17 20:31N 50°48' W 001°07'1 1.7
2019-Feb-17 20:01N 50°49' W 001°06'0 0.0
2019-Feb-17 19:30N 50°49' W 001°06'0 0.0
2019-Feb-17 19:00N 50°49' W 001°06'0 0.0
2019-Feb-17 18:30N 50°49' W 001°06'0 0.0
2019-Feb-17 18:01N 50°49' W 001°06'0 0.0
2019-Feb-17 17:31N 50°49' W 001°06'0 0.0
2019-Feb-17 17:00N 50°49' W 001°06'0 0.0
2019-Feb-17 16:30N 50°49' W 001°06'0 0.0
2019-Feb-17 16:00N 50°49' W 001°06'0 0.0
2019-Feb-17 15:31N 50°49' W 001°06'0 0.0
2019-Feb-17 15:01N 50°49' W 001°06'0 0.0
2019-Feb-17 14:31N 50°49' W 001°06'0 0.0
2019-Feb-17 14:00N 50°49' W 001°06'0 0.0
2019-Feb-17 13:30N 50°49' W 001°06'0 0.0
2019-Feb-17 13:00N 50°49' W 001°06'0 0.0
2019-Feb-17 12:30N 50°49' W 001°06'0 0.0
2019-Feb-17 12:00N 50°49' W 001°06'0 0.0
2019-Feb-17 11:31N 50°49' W 001°06'0 0.0
2019-Feb-17 11:00N 50°49' W 001°06'0 0.0
2019-Feb-17 10:30N 50°49' W 001°06'0 0.0
2019-Feb-17 10:01N 50°49' W 001°06'0 0.0
2019-Feb-17 09:30N 50°49' W 001°06'0 0.0
2019-Feb-17 09:01N 50°49' W 001°06'0 0.0
2019-Feb-17 08:31N 50°49' W 001°06'0 0.0
2019-Feb-17 08:00N 50°49' W 001°06'0 0.3
2019-Feb-17 07:30N 50°49' W 001°06'4 8.1
2019-Feb-17 07:01N 50°45' W 001°05'714.2
2019-Feb-17 06:31N 50°38' W 001°07'612.0
2019-Feb-17 06:01N 50°32' W 001°10'611.2
2019-Feb-17 05:30N 50°27' W 001°15'511.1
2019-Feb-17 05:00N 50°22' W 001°19'611.4
2019-Feb-17 04:30N 50°18' W 001°24'713.9
2019-Feb-17 04:01N 50°12' W 001°31'816.0
2019-Feb-17 03:31N 50°05' W 001°38'917.7
2019-Feb-17 03:01N 49°58' W 001°46'815.1
2019-Feb-17 02:30N 49°52' W 001°53'611.9
2019-Feb-17 02:00N 49°47' W 001°58'511.3
2019-Feb-17 01:30N 49°42' W 002°02'510.6
2019-Feb-17 01:00N 49°37' W 002°05'510.5
2019-Feb-17 00:30N 49°33' W 002°08'510.8
2019-Feb-17 00:00N 49°28' W 002°13'510.3
2019-Feb-16 23:30N 49°24' W 002°17'510.0
2019-Feb-16 23:00N 49°19' W 002°21'510.4
2019-Feb-16 22:31N 49°14' W 002°23'611.3
2019-Feb-16 22:00N 49°09' W 002°24'712.2
2019-Feb-16 21:23N 49°01' W 002°23'612.6
2019-Feb-16 20:54N 48°55' W 002°22'21 5.1
2019-Feb-16 16:43N 48°38' W 002°02'3 8.1
2019-Feb-16 16:22N 48°40' W 002°05'610.4
2019-Feb-16 15:46N 48°46' W 002°08'1 1.3
2019-Feb-16 15:03N 48°45' W 002°09'2 1.5
2019-Feb-16 13:52N 48°45' W 002°12'3 2.8
2019-Feb-16 12:57N 48°44' W 002°15'3 6.2
2019-Feb-16 12:28N 48°44' W 002°11'5 9.9
2019-Feb-16 11:58N 48°41' W 002°05'35 4.4
2019-Feb-16 04:00N 49°14' W 002°23'715.0
2019-Feb-16 03:30N 49°20' W 002°19'815.2
2019-Feb-16 03:00N 49°27' W 002°13'715.1
2019-Feb-16 02:31N 49°34' W 002°08'815.3
2019-Feb-16 02:00N 49°41' W 002°03'814.8
2019-Feb-16 01:28N 49°48' W 001°59'914.9
2019-Feb-16 00:51N 49°55' W 001°50'615.3
2019-Feb-16 00:28N 50°00' W 001°44'915.7
2019-Feb-15 23:54N 50°07' W 001°36'915.8
2019-Feb-15 23:21N 50°14' W 001°28'515.0
2019-Feb-15 23:00N 50°19' W 001°26'1115.8
2019-Feb-15 22:17N 50°29' W 001°17'416.2
2019-Feb-15 22:00N 50°32' W 001°13'816.1
2019-Feb-15 21:31N 50°39' W 001°05'612.5
2019-Feb-15 21:00N 50°45' W 001°05'4 6.7
2019-Feb-15 20:29N 50°49' W 001°06'0 0.3
2019-Feb-15 19:59N 50°49' W 001°06'0 0.0
2019-Feb-15 19:29N 50°49' W 001°06'0 0.0
2019-Feb-15 18:59N 50°49' W 001°06'0 0.0
2019-Feb-15 18:29N 50°49' W 001°06'0 0.0
2019-Feb-15 18:00N 50°49' W 001°06'0 0.0
2019-Feb-15 17:30N 50°49' W 001°06'0 0.0
2019-Feb-15 17:00N 50°49' W 001°06'0 0.0
2019-Feb-15 16:30N 50°49' W 001°06'0 0.0
2019-Feb-15 16:00N 50°49' W 001°06'0 0.0
2019-Feb-15 15:30N 50°49' W 001°06'0 0.0
2019-Feb-15 15:00N 50°49' W 001°06'0 0.0
2019-Feb-15 14:30N 50°49' W 001°06'0 0.0
2019-Feb-15 14:00N 50°49' W 001°06'0 0.0
2019-Feb-15 13:30N 50°49' W 001°06'0 0.0
2019-Feb-15 13:00N 50°49' W 001°06'0 0.0
2019-Feb-15 12:30N 50°49' W 001°06'0 0.0
2019-Feb-15 12:00N 50°49' W 001°06'0 0.0
2019-Feb-15 11:30N 50°49' W 001°06'0 0.0
2019-Feb-15 11:00N 50°49' W 001°06'0 0.0
2019-Feb-15 10:30N 50°49' W 001°06'0 0.0
2019-Feb-15 10:00N 50°49' W 001°06'0 0.1
2019-Feb-15 09:30N 50°49' W 001°06'3 6.2
2019-Feb-15 09:00N 50°46' W 001°05'4 7.5
2019-Feb-15 08:30N 50°42' W 001°03'1 1.1
2019-Feb-15 08:01N 50°43' W 001°03'612.6
2019-Feb-15 07:31N 50°37' W 001°07'917.1
2019-Feb-15 07:01N 50°30' W 001°16'917.5
2019-Feb-15 06:31N 50°23' W 001°24'917.3
2019-Feb-15 06:01N 50°16' W 001°31'1016.5
2019-Feb-15 05:24N 50°07' W 001°38'816.3
2019-Feb-15 04:55N 50°00' W 001°45'1015.9
2019-Feb-15 04:16N 49°52' W 001°54'416.2
2019-Feb-15 04:00N 49°48' W 001°57'917.1
2019-Feb-15 03:27N 49°40' W 002°04'613.8
2019-Feb-15 03:00N 49°34' W 002°08'713.7
2019-Feb-15 02:28N 49°27' W 002°12'613.3
2019-Feb-15 02:00N 49°22' W 002°16'612.9
2019-Feb-15 01:30N 49°18' W 002°23'612.2
2019-Feb-15 00:59N 49°12' W 002°27'612.3
2019-Feb-15 00:31N 49°06' W 002°29'712.1
2019-Feb-14 23:57N 48°60' W 002°33'510.5
2019-Feb-14 23:29N 48°55' W 002°33'810.9
2019-Feb-14 22:45N 48°51' W 002°22'1511.0
2019-Feb-14 21:22N 48°41' W 002°05'3 0.3
2019-Feb-14 08:13N 48°38' W 002°02'1 4.5
2019-Feb-14 07:58N 48°39' W 002°03'1316.6
2019-Feb-14 07:13N 48°49' W 002°16'616.1
2019-Feb-14 06:49N 48°54' W 002°21'1116.8
2019-Feb-14 06:10N 49°05' W 002°23'415.8
2019-Feb-14 05:53N 49°09' W 002°23'615.5
2019-Feb-14 05:29N 49°15' W 002°22'816.0
2019-Feb-14 05:01N 49°22' W 002°18'815.7
2019-Feb-14 04:30N 49°29' W 002°12'815.8
2019-Feb-14 04:00N 49°36' W 002°07'1312.3
2019-Feb-14 02:58N 49°47' W 001°57'6 9.9
2019-Feb-14 02:25N 49°52' W 001°52'910.0
2019-Feb-14 01:32N 49°59' W 001°43'0 9.8
2019-Feb-14 01:29N 49°59' W 001°43'1010.3
2019-Feb-14 00:31N 50°08' W 001°35'310.7
2019-Feb-14 00:15N 50°10' W 001°32'510.8
2019-Feb-13 23:47N 50°14' W 001°28'311.1
2019-Feb-13 23:30N 50°17' W 001°25'611.5
2019-Feb-13 23:00N 50°21' W 001°20'611.9
2019-Feb-13 22:30N 50°26' W 001°13'612.2
2019-Feb-13 22:00N 50°31' W 001°07'612.2
2019-Feb-13 21:30N 50°35' W 001°02'713.3
2019-Feb-13 21:00N 50°42' W 000°59'713.3
2019-Feb-13 20:30N 50°47' W 001°06'2 4.2
2019-Feb-13 20:00N 50°49' W 001°06'0 0.0
2019-Feb-13 19:30N 50°49' W 001°06'0 0.0
2019-Feb-13 19:00N 50°49' W 001°06'0 0.0
2019-Feb-13 18:30N 50°49' W 001°06'0 0.0
2019-Feb-13 18:00N 50°49' W 001°06'0 0.0
2019-Feb-13 17:30N 50°49' W 001°06'0 0.0
2019-Feb-13 17:00N 50°49' W 001°06'  

Dump ship's entire track history